Time;durP1;ratioP1;P1;durP2;ratioP2;P2;SDS_P1;SDS_P2;PMS_P1;PMS_P2;Temp;Humidity;BMP_temperature;BMP_pressure;BME280_temperature;BME280_humidity;BME280_pressure;Samples;Min_cycle;Max_cycle;Signal;HPM_P1;HPM_P2
2021/12/21 00:00:59;;;;;;;;;;;3.30;83.60;;;;;;5029034;28;82058;-45
2021/12/21 00:03:24;;;;;;;;;;;3.30;83.40;;;;;;5028337;28;85208;-45
2021/12/21 00:05:50;;;;;;;;;;;3.30;83.60;;;;;;5029193;28;81333;-45
2021/12/21 00:08:17;;;;;;;;;;;3.30;83.50;;;;;;5028626;28;83309;-45
2021/12/21 00:10:44;;;;;;;;;;;3.30;83.60;;;;;;5028445;28;84453;-45
2021/12/21 00:16:09;;;;;;;;;;;3.20;83.60;;;;;;5015999;28;82672;-46
2021/12/21 00:18:41;;;;;;;;;;;3.20;83.70;;;;;;5028205;28;84392;-45
2021/12/21 00:21:20;;;;;;;;;;;3.20;83.80;;;;;;5031318;28;81885;-45
2021/12/21 00:23:49;;;;;;;;;;;3.20;84.00;;;;;;5028526;28;83295;-45
2021/12/21 00:26:19;;;;;;;;;;;3.10;83.60;;;;;;5028316;28;81840;-45
2021/12/21 00:28:59;;;;;;;;;;;3.10;83.80;;;;;;5028279;28;83777;-46
2021/12/21 00:31:25;;;;;;;;;;;3.10;83.90;;;;;;5028828;28;82654;-45
2021/12/21 00:33:51;;;;;;;;;;;3.10;83.90;;;;;;5028311;28;82137;-45
2021/12/21 00:36:17;;;;;;;;;;;3.10;83.90;;;;;;5028487;28;82147;-45
2021/12/21 00:38:44;;;;;;;;;;;3.10;83.90;;;;;;5027087;28;84434;-45
2021/12/21 00:41:09;;;;;;;;;;;3.10;83.90;;;;;;5028292;28;82167;-45
2021/12/21 00:43:35;;;;;;;;;;;3.10;83.90;;;;;;5030755;28;83995;-45
2021/12/21 00:46:01;;;;;;;;;;;3.10;83.80;;;;;;5028109;28;82006;-46
2021/12/21 00:48:29;;;;;;;;;;;3.00;84.00;;;;;;5027998;28;84345;-45
2021/12/21 00:50:58;;;;;;;;;;;3.00;84.00;;;;;;5027809;28;84562;-45
2021/12/21 00:53:24;;;;;;;;;;;3.00;83.80;;;;;;5027815;28;82114;-45
2021/12/21 00:55:50;;;;;;;;;;;3.00;83.60;;;;;;5028341;28;84213;-45
2021/12/21 00:58:15;;;;;;;;;;;3.00;83.70;;;;;;5027309;28;83718;-45
2021/12/21 01:00:41;;;;;;;;;;;3.00;83.50;;;;;;5027267;28;81977;-45
2021/12/21 01:03:10;;;;;;;;;;;3.00;83.70;;;;;;5029811;28;84181;-45
2021/12/21 01:05:53;;;;;;;;;;;3.00;83.50;;;;;;5027820;28;82063;-45
2021/12/21 01:08:23;;;;;;;;;;;3.00;83.60;;;;;;5026764;28;85205;-45
2021/12/21 01:11:03;;;;;;;;;;;3.00;83.50;;;;;;5027568;28;83462;-45
2021/12/21 01:18:33;;;;;;;;;;;3.00;83.60;;;;;;5027204;28;83017;-45
2021/12/21 01:21:11;;;;;;;;;;;2.90;83.90;;;;;;5028094;28;81266;-45
2021/12/21 01:26:53;;;;;;;;;;;2.90;83.60;;;;;;5029278;28;81880;-45
2021/12/21 01:29:31;;;;;;;;;;;2.90;83.30;;;;;;5026956;28;84457;-45
2021/12/21 01:37:11;;;;;;;;;;;2.90;82.90;;;;;;5027010;28;82297;-45
2021/12/21 01:49:58;;;;;;;;;;;2.90;82.60;;;;;;5027227;28;81863;-45
2021/12/21 01:52:26;;;;;;;;;;;2.80;83.10;;;;;;5026916;28;84541;-45
2021/12/21 01:54:52;;;;;;;;;;;2.80;83.10;;;;;;5026296;28;83035;-45
2021/12/21 01:57:18;;;;;;;;;;;2.80;83.00;;;;;;5027011;28;85020;-45
2021/12/21 01:59:44;;;;;;;;;;;2.80;83.00;;;;;;5026621;28;83646;-45
2021/12/21 02:02:11;;;;;;;;;;;2.80;82.80;;;;;;5026934;28;82003;-45
2021/12/21 02:04:37;;;;;;;;;;;2.70;82.80;;;;;;5026834;28;84031;-45
2021/12/21 02:07:03;;;;;;;;;;;2.70;82.60;;;;;;5026694;28;84590;-45
2021/12/21 02:09:37;;;;;;;;;;;2.70;82.80;;;;;;5026641;28;81855;-45
2021/12/21 02:12:07;;;;;;;;;;;2.70;82.70;;;;;;5029819;28;84170;-45
2021/12/21 02:14:33;;;;;;;;;;;2.70;82.60;;;;;;5025816;28;82050;-45
2021/12/21 02:18:07;;;;;;;;;;;2.70;82.80;;;;;;5026679;28;83975;-45
2021/12/21 02:20:01;;;;;;;;;;;2.70;83.00;;;;;;5021672;28;83432;-45
2021/12/21 02:22:31;;;;;;;;;;;2.70;83.00;;;;;;5026583;28;81912;-45
2021/12/21 02:25:21;;;;;;;;;;;2.70;82.90;;;;;;5026748;28;81870;-45
2021/12/21 02:27:57;;;;;;;;;;;2.70;83.00;;;;;;5026214;28;83388;-45
2021/12/21 02:30:23;;;;;;;;;;;2.70;83.20;;;;;;5026527;28;81863;-45
2021/12/21 02:32:48;;;;;;;;;;;2.70;83.20;;;;;;5026500;28;83872;-45
2021/12/21 02:35:14;;;;;;;;;;;2.60;83.10;;;;;;5028843;28;83950;-45
2021/12/21 02:37:40;;;;;;;;;;;2.70;83.10;;;;;;5027296;28;81503;-45
2021/12/21 02:40:06;;;;;;;;;;;2.60;83.00;;;;;;5025875;28;84314;-45
2021/12/21 02:42:31;;;;;;;;;;;2.70;83.20;;;;;;5026397;28;81942;-45
2021/12/21 02:44:57;;;;;;;;;;;2.70;82.90;;;;;;5025769;28;84226;-45
2021/12/21 02:47:22;;;;;;;;;;;2.60;83.00;;;;;;5026425;28;83615;-45
2021/12/21 02:49:48;;;;;;;;;;;2.60;83.10;;;;;;5026625;28;82311;-45
2021/12/21 02:52:14;;;;;;;;;;;2.70;82.90;;;;;;5026313;28;83436;-45
2021/12/21 02:54:39;;;;;;;;;;;2.60;83.00;;;;;;5025548;28;84560;-45
2021/12/21 02:57:05;;;;;;;;;;;2.60;83.20;;;;;;5028708;28;81651;-45
2021/12/21 02:59:31;;;;;;;;;;;2.60;83.10;;;;;;5025816;28;85099;-45
2021/12/21 03:01:56;;;;;;;;;;;2.60;83.10;;;;;;5026860;28;81340;-45
2021/12/21 03:04:22;;;;;;;;;;;2.60;83.00;;;;;;5026118;28;83132;-45
2021/12/21 03:11:56;;;;;;;;;;;2.50;83.40;;;;;;5026103;28;83409;-45
2021/12/21 03:14:21;;;;;;;;;;;2.50;83.30;;;;;;5025385;28;84651;-45
2021/12/21 03:16:47;;;;;;;;;;;2.60;83.10;;;;;;5028936;28;81803;-45
2021/12/21 03:19:12;;;;;;;;;;;2.50;83.10;;;;;;5025848;28;84820;-45
2021/12/21 03:21:39;;;;;;;;;;;2.60;83.20;;;;;;5025895;28;82051;-45
2021/12/21 03:24:05;;;;;;;;;;;2.50;83.00;;;;;;5029254;28;84040;-45
2021/12/21 03:26:31;;;;;;;;;;;2.50;83.20;;;;;;5029793;28;84015;-45
2021/12/21 03:28:57;;;;;;;;;;;2.50;83.40;;;;;;5029502;28;82067;-45
2021/12/21 03:31:22;;;;;;;;;;;2.50;83.30;;;;;;5029546;28;82549;-45
2021/12/21 03:33:48;;;;;;;;;;;2.50;83.20;;;;;;5028144;28;85247;-45
2021/12/21 03:36:16;;;;;;;;;;;2.50;83.20;;;;;;5029074;28;82077;-45
2021/12/21 03:38:47;;;;;;;;;;;2.50;83.20;;;;;;5031475;28;84040;-46
2021/12/21 03:41:15;;;;;;;;;;;2.50;83.50;;;;;;5028993;28;81789;-45
2021/12/21 03:43:41;;;;;;;;;;;2.40;83.50;;;;;;5028877;28;82753;-45
2021/12/21 03:46:11;;;;;;;;;;;2.50;83.30;;;;;;5028871;28;84792;-45
2021/12/21 03:48:41;;;;;;;;;;;2.50;83.30;;;;;;5028932;28;81765;-45
2021/12/21 03:51:06;;;;;;;;;;;2.50;83.30;;;;;;5029269;28;83940;-45
2021/12/21 03:53:32;;;;;;;;;;;2.40;83.30;;;;;;5028905;28;83076;-46
2021/12/21 03:56:35;;;;;;;;;;;2.40;83.50;;;;;;5028827;28;81974;-46
2021/12/21 03:58:43;;;;;;;;;;;2.40;83.30;;;;;;5027765;28;83593;-45
2021/12/21 04:01:09;;;;;;;;;;;2.40;83.10;;;;;;5031276;28;84558;-46
2021/12/21 04:03:35;;;;;;;;;;;2.40;83.40;;;;;;5028440;28;83895;-45
2021/12/21 04:06:00;;;;;;;;;;;2.40;83.40;;;;;;5028753;28;83865;-45
2021/12/21 04:08:26;;;;;;;;;;;2.40;83.30;;;;;;5028813;28;82057;-45
2021/12/21 04:10:51;;;;;;;;;;;2.40;83.30;;;;;;5028530;28;83757;-46
2021/12/21 04:13:17;;;;;;;;;;;2.30;83.40;;;;;;5028280;28;84419;-45
2021/12/21 04:15:43;;;;;;;;;;;2.30;83.30;;;;;;5028627;28;81172;-45
2021/12/21 04:18:13;;;;;;;;;;;2.30;83.70;;;;;;5028508;28;83484;-45
2021/12/21 04:20:39;;;;;;;;;;;2.30;83.50;;;;;;5028257;28;84342;-45
2021/12/21 04:23:05;;;;;;;;;;;2.30;83.30;;;;;;5030692;28;82971;-45
2021/12/21 04:25:31;;;;;;;;;;;2.30;83.40;;;;;;5028428;28;83080;-45
2021/12/21 04:27:57;;;;;;;;;;;2.30;83.30;;;;;;5028337;28;81758;-45
2021/12/21 04:30:22;;;;;;;;;;;2.30;83.20;;;;;;5028580;28;82280;-45
2021/12/21 04:32:48;;;;;;;;;;;2.40;83.50;;;;;;5028014;28;84500;-45
2021/12/21 04:35:18;;;;;;;;;;;2.30;83.30;;;;;;5028174;28;81974;-45
2021/12/21 04:37:48;;;;;;;;;;;2.30;83.50;;;;;;5028361;28;84050;-45
2021/12/21 04:40:17;;;;;;;;;;;2.30;83.30;;;;;;5028441;28;83918;-45
2021/12/21 04:42:43;;;;;;;;;;;2.20;83.60;;;;;;5028117;28;82176;-45
2021/12/21 04:45:08;;;;;;;;;;;2.20;83.30;;;;;;5030637;28;82921;-46
2021/12/21 04:47:34;;;;;;;;;;;2.30;83.40;;;;;;5027377;28;83087;-45
2021/12/21 04:49:59;;;;;;;;;;;2.20;83.40;;;;;;5027910;28;85248;-45
2021/12/21 04:52:25;;;;;;;;;;;2.20;83.60;;;;;;5027844;28;85025;-45
2021/12/21 04:54:50;;;;;;;;;;;2.20;83.30;;;;;;5028046;28;82094;-45
2021/12/21 04:57:16;;;;;;;;;;;2.20;83.10;;;;;;5027989;28;84197;-46
2021/12/21 04:59:41;;;;;;;;;;;2.20;83.30;;;;;;5027566;28;84846;-46
2021/12/21 05:02:07;;;;;;;;;;;2.20;83.20;;;;;;5027388;28;82947;-46
2021/12/21 05:04:33;;;;;;;;;;;2.20;83.40;;;;;;5030840;28;83640;-46
2021/12/21 05:06:58;;;;;;;;;;;2.20;83.40;;;;;;5027814;28;81968;-46
2021/12/21 05:09:29;;;;;;;;;;;2.20;83.40;;;;;;5027674;28;83792;-46
2021/12/21 05:12:04;;;;;;;;;;;2.20;83.50;;;;;;5026700;28;85495;-47
2021/12/21 05:14:29;;;;;;;;;;;2.10;83.70;;;;;;5027258;28;81904;-46
2021/12/21 05:16:55;;;;;;;;;;;2.10;83.50;;;;;;5027617;28;82422;-46
2021/12/21 05:19:20;;;;;;;;;;;2.10;83.50;;;;;;5027511;28;83792;-46
2021/12/21 05:21:46;;;;;;;;;;;2.20;83.40;;;;;;5027517;28;82109;-46
2021/12/21 05:24:11;;;;;;;;;;;2.10;83.70;;;;;;5027483;28;83594;-46
2021/12/21 05:26:37;;;;;;;;;;;2.10;83.60;;;;;;5030011;28;83706;-46
2021/12/21 05:29:03;;;;;;;;;;;2.10;83.40;;;;;;5027869;28;83924;-47
2021/12/21 05:31:29;;;;;;;;;;;2.10;83.60;;;;;;5027094;28;84702;-46
2021/12/21 05:33:54;;;;;;;;;;;2.00;83.80;;;;;;5027232;28;82139;-46
2021/12/21 05:36:20;;;;;;;;;;;2.10;83.60;;;;;;5026965;28;82845;-46
2021/12/21 05:38:50;;;;;;;;;;;2.10;83.60;;;;;;5026967;28;84475;-46
2021/12/21 05:41:24;;;;;;;;;;;2.10;83.20;;;;;;5025980;28;82163;-46
2021/12/21 05:43:50;;;;;;;;;;;2.10;83.50;;;;;;5027499;28;82358;-46
2021/12/21 05:46:15;;;;;;;;;;;2.00;83.50;;;;;;5026273;28;84048;-47
2021/12/21 05:48:41;;;;;;;;;;;2.00;83.60;;;;;;5029671;28;82162;-46
2021/12/21 05:51:06;;;;;;;;;;;2.00;83.50;;;;;;5026972;28;83331;-46
2021/12/21 05:53:32;;;;;;;;;;;2.00;83.40;;;;;;5027411;28;81350;-46
2021/12/21 05:55:57;;;;;;;;;;;2.00;83.50;;;;;;5026923;28;83609;-46
2021/12/21 05:58:23;;;;;;;;;;;2.00;83.50;;;;;;5026747;28;84980;-46
2021/12/21 06:00:48;;;;;;;;;;;2.00;83.40;;;;;;5026375;28;83091;-46
2021/12/21 06:03:14;;;;;;;;;;;2.00;83.30;;;;;;5027125;28;84939;-46
2021/12/21 06:05:40;;;;;;;;;;;2.00;83.50;;;;;;5026671;28;83465;-46
2021/12/21 06:08:05;;;;;;;;;;;2.00;83.60;;;;;;5026999;28;82040;-46
2021/12/21 06:10:36;;;;;;;;;;;1.90;83.70;;;;;;5029412;28;83397;-46
2021/12/21 06:26:14;;;;;;;;;;;1.90;83.70;;;;;;5025750;28;85667;-46
2021/12/21 06:28:41;;;;;;;;;;;1.80;83.90;;;;;;5026754;28;82061;-46
2021/12/21 06:31:06;;;;;;;;;;;1.90;83.70;;;;;;5026573;28;83732;-46
2021/12/21 06:33:32;;;;;;;;;;;1.90;83.50;;;;;;5029219;28;83248;-46
2021/12/21 06:35:58;;;;;;;;;;;1.90;83.70;;;;;;5026506;28;84051;-46
2021/12/21 06:38:24;;;;;;;;;;;1.90;83.60;;;;;;5026050;28;84149;-46
2021/12/21 06:40:50;;;;;;;;;;;1.90;84.20;;;;;;5026466;28;82068;-46
2021/12/21 06:43:16;;;;;;;;;;;1.90;83.60;;;;;;5027010;28;83990;-46
2021/12/21 06:53:37;;;;;;;;;;;1.90;83.90;;;;;;5026505;28;82243;-46
2021/12/21 06:56:04;;;;;;;;;;;1.80;83.90;;;;;;5029137;28;81984;-46
2021/12/21 06:58:29;;;;;;;;;;;1.80;84.00;;;;;;5028821;28;84545;-46
2021/12/21 07:00:55;;;;;;;;;;;1.80;83.90;;;;;;5029758;28;81831;-47
2021/12/21 07:03:21;;;;;;;;;;;1.80;83.80;;;;;;5029725;28;81910;-46
2021/12/21 07:05:47;;;;;;;;;;;1.80;84.10;;;;;;5029768;28;83126;-46
2021/12/21 07:08:16;;;;;;;;;;;1.80;84.10;;;;;;5030225;28;81394;-46
2021/12/21 07:10:51;;;;;;;;;;;1.80;84.00;;;;;;5029694;28;83144;-46
2021/12/21 07:18:44;;;;;;;;;;;1.90;83.80;;;;;;5029431;28;82171;-46
2021/12/21 07:21:10;;;;;;;;;;;1.80;84.00;;;;;;5029520;28;82113;-46
2021/12/21 07:23:35;;;;;;;;;;;1.80;84.00;;;;;;5029488;28;82508;-47
2021/12/21 07:26:01;;;;;;;;;;;1.70;84.00;;;;;;5029233;28;83658;-46
2021/12/21 07:28:26;;;;;;;;;;;1.70;84.00;;;;;;5029020;28;82057;-47
2021/12/21 07:30:52;;;;;;;;;;;1.80;83.90;;;;;;5029160;28;83706;-46
2021/12/21 07:33:18;;;;;;;;;;;1.70;83.90;;;;;;5029659;28;83664;-46
2021/12/21 07:35:43;;;;;;;;;;;1.70;84.60;;;;;;5029053;28;82269;-46
2021/12/21 07:38:10;;;;;;;;;;;1.70;83.90;;;;;;5031707;28;83808;-46
2021/12/21 07:40:36;;;;;;;;;;;1.70;84.00;;;;;;5028369;28;82914;-46
2021/12/21 07:43:02;;;;;;;;;;;1.80;83.90;;;;;;5028784;28;84993;-46
2021/12/21 07:45:28;;;;;;;;;;;1.80;83.80;;;;;;5029167;28;82728;-47
2021/12/21 07:47:53;;;;;;;;;;;1.70;83.90;;;;;;5029089;28;82085;-46
2021/12/21 07:50:19;;;;;;;;;;;1.70;84.20;;;;;;5028926;28;84125;-46
2021/12/21 07:52:45;;;;;;;;;;;1.70;84.10;;;;;;5028722;28;84535;-46
2021/12/21 07:55:10;;;;;;;;;;;1.70;83.80;;;;;;5028633;28;82120;-46
2021/12/21 07:57:37;;;;;;;;;;;1.70;83.90;;;;;;5029487;28;81558;-46
2021/12/21 08:00:03;;;;;;;;;;;1.70;84.00;;;;;;5031342;28;84359;-46
2021/12/21 08:02:29;;;;;;;;;;;1.80;83.70;;;;;;5028681;28;84182;-46
2021/12/21 08:04:55;;;;;;;;;;;1.70;83.70;;;;;;5027912;28;85248;-46
2021/12/21 08:07:25;;;;;;;;;;;1.70;83.90;;;;;;5028829;28;82085;-46
2021/12/21 08:09:54;;;;;;;;;;;1.70;83.80;;;;;;5028301;28;83937;-46
2021/12/21 08:12:19;;;;;;;;;;;1.70;83.80;;;;;;5028088;28;84439;-46
2021/12/21 08:14:46;;;;;;;;;;;1.60;83.90;;;;;;5028254;28;82056;-46
2021/12/21 08:17:13;;;;;;;;;;;1.70;84.00;;;;;;5028580;28;84052;-46
2021/12/21 08:19:38;;;;;;;;;;;1.60;84.00;;;;;;5028318;28;84643;-46
2021/12/21 08:22:04;;;;;;;;;;;1.70;84.10;;;;;;5031690;28;81208;-46
2021/12/21 08:24:30;;;;;;;;;;;1.60;83.90;;;;;;5028417;28;82958;-46
2021/12/21 08:26:58;;;;;;;;;;;1.60;83.90;;;;;;5028158;28;82751;-46
2021/12/21 08:29:24;;;;;;;;;;;1.60;84.00;;;;;;5027638;28;83792;-46
2021/12/21 08:31:50;;;;;;;;;;;1.60;84.00;;;;;;5028243;28;83572;-46
2021/12/21 08:34:15;;;;;;;;;;;1.60;84.00;;;;;;5028320;28;81855;-46
2021/12/21 08:36:41;;;;;;;;;;;1.60;84.20;;;;;;5028169;28;83807;-46
2021/12/21 08:39:07;;;;;;;;;;;1.60;84.00;;;;;;5028123;28;84392;-46
2021/12/21 08:41:39;;;;;;;;;;;1.60;84.30;;;;;;5027958;28;82007;-46
2021/12/21 08:44:05;;;;;;;;;;;1.60;84.40;;;;;;5030777;28;83184;-46
2021/12/21 08:46:30;;;;;;;;;;;1.60;84.00;;;;;;5028602;28;81183;-46
2021/12/21 08:48:56;;;;;;;;;;;1.60;83.80;;;;;;5027964;28;82423;-46
2021/12/21 08:51:21;;;;;;;;;;;1.60;84.00;;;;;;5027953;28;84699;-46
2021/12/21 08:53:47;;;;;;;;;;;1.60;83.70;;;;;;5027373;28;83061;-46
2021/12/21 08:56:12;;;;;;;;;;;1.60;83.80;;;;;;5027602;28;85320;-46
2021/12/21 08:58:38;;;;;;;;;;;1.60;83.70;;;;;;5027771;28;84470;-46
2021/12/21 09:01:04;;;;;;;;;;;1.60;83.70;;;;;;5027858;28;82178;-46
2021/12/21 09:03:30;;;;;;;;;;;1.60;83.80;;;;;;5027691;28;83116;-46
2021/12/21 09:05:56;;;;;;;;;;;1.60;83.80;;;;;;5030314;28;85036;-46
2021/12/21 09:08:22;;;;;;;;;;;1.60;83.90;;;;;;5027619;28;83823;-46
2021/12/21 09:10:47;;;;;;;;;;;1.60;83.90;;;;;;5027646;28;83657;-46
2021/12/21 09:13:13;;;;;;;;;;;1.60;83.80;;;;;;5027576;28;82056;-46
2021/12/21 09:15:39;;;;;;;;;;;1.60;83.80;;;;;;5027324;28;84191;-47
2021/12/21 09:18:05;;;;;;;;;;;1.60;84.40;;;;;;5026872;28;85541;-46
2021/12/21 09:20:31;;;;;;;;;;;1.60;83.90;;;;;;5026648;28;82024;-46
2021/12/21 09:22:57;;;;;;;;;;;1.60;83.70;;;;;;5027552;28;82816;-46
2021/12/21 09:25:23;;;;;;;;;;;1.60;83.70;;;;;;5029879;28;84563;-46
2021/12/21 09:27:49;;;;;;;;;;;1.60;83.70;;;;;;5027617;28;83067;-46
2021/12/21 09:30:16;;;;;;;;;;;1.50;83.70;;;;;;5027229;28;84527;-46
2021/12/21 09:32:42;;;;;;;;;;;1.60;83.90;;;;;;5027598;28;82117;-47
2021/12/21 09:35:08;;;;;;;;;;;1.50;83.80;;;;;;5027789;28;82959;-46
2021/12/21 09:37:34;;;;;;;;;;;1.50;83.70;;;;;;5027114;28;83583;-46
2021/12/21 09:40:00;;;;;;;;;;;1.60;83.30;;;;;;5027248;28;82100;-45
2021/12/21 09:42:27;;;;;;;;;;;1.60;83.30;;;;;;5026703;28;82750;-46
2021/12/21 09:44:53;;;;;;;;;;;1.60;83.20;;;;;;5027022;28;84705;-46
2021/12/21 09:47:19;;;;;;;;;;;1.60;83.20;;;;;;5030127;28;82012;-46
2021/12/21 09:49:45;;;;;;;;;;;1.60;83.20;;;;;;5027068;28;82953;-46
2021/12/21 09:52:11;;;;;;;;;;;1.60;83.20;;;;;;5027236;28;82071;-46
2021/12/21 09:54:38;;;;;;;;;;;1.60;83.10;;;;;;5027234;28;82285;-46
2021/12/21 09:57:04;;;;;;;;;;;1.60;82.70;;;;;;5026574;28;84588;-46
2021/12/21 09:59:30;;;;;;;;;;;1.60;82.50;;;;;;5027446;28;81375;-46
2021/12/21 10:01:57;;;;;;;;;;;1.70;82.50;;;;;;5026927;28;82762;-46
2021/12/21 10:04:23;;;;;;;;;;;1.70;82.50;;;;;;5026657;28;84426;-46
2021/12/21 10:06:50;;;;;;;;;;;1.70;82.40;;;;;;5026494;28;82775;-46
2021/12/21 10:09:18;;;;;;;;;;;1.60;82.60;;;;;;5029414;28;85062;-46
2021/12/21 10:11:45;;;;;;;;;;;1.60;82.70;;;;;;5026951;28;82090;-46
2021/12/21 10:14:10;;;;;;;;;;;1.60;82.60;;;;;;5026229;28;83690;-46
2021/12/21 10:16:36;;;;;;;;;;;1.60;82.70;;;;;;5026439;28;84330;-46
2021/12/21 10:19:04;;;;;;;;;;;1.60;82.50;;;;;;5026731;28;82132;-45
2021/12/21 10:21:29;;;;;;;;;;;1.70;82.60;;;;;;5026943;28;82433;-46
2021/12/21 10:23:55;;;;;;;;;;;1.60;82.30;;;;;;5026839;28;84277;-46
2021/12/21 10:26:22;;;;;;;;;;;1.60;82.50;;;;;;5026635;28;81843;-46
2021/12/21 10:28:59;;;;;;;;;;;1.60;82.50;;;;;;5026560;28;82824;-45
2021/12/21 10:31:36;;;;;;;;;;;1.60;82.60;;;;;;5029622;28;85109;-46
2021/12/21 10:34:03;;;;;;;;;;;1.60;82.40;;;;;;5030017;28;85292;-46
2021/12/21 10:36:29;;;;;;;;;;;1.60;82.50;;;;;;5029933;28;83614;-46
2021/12/21 10:38:59;;;;;;;;;;;1.70;82.50;;;;;;5029874;28;82043;-46
2021/12/21 10:41:32;;;;;;;;;;;1.60;82.70;;;;;;5030060;28;83607;-46
2021/12/21 10:44:04;;;;;;;;;;;1.60;82.80;;;;;;5030107;28;82161;-46
2021/12/21 10:46:31;;;;;;;;;;;1.60;82.70;;;;;;5029819;28;82061;-46
2021/12/21 10:49:06;;;;;;;;;;;1.50;82.60;;;;;;5030391;28;83076;-46
2021/12/21 10:51:31;;;;;;;;;;;1.50;82.80;;;;;;5029716;28;83547;-45
2021/12/21 10:53:57;;;;;;;;;;;1.50;83.10;;;;;;5032431;28;82083;-46
2021/12/21 10:56:22;;;;;;;;;;;1.50;83.00;;;;;;5028836;28;85287;-46
2021/12/21 10:58:48;;;;;;;;;;;1.50;82.90;;;;;;5029894;28;82029;-46
2021/12/21 11:01:15;;;;;;;;;;;1.50;83.10;;;;;;5029682;28;83866;-46
2021/12/21 11:03:49;;;;;;;;;;;1.50;83.20;;;;;;5029576;28;83647;-45
2021/12/21 11:06:16;;;;;;;;;;;1.50;83.30;;;;;;5029836;28;81721;-46
2021/12/21 11:08:43;;;;;;;;;;;1.50;82.90;;;;;;5029618;28;83177;-46
2021/12/21 11:11:18;;;;;;;;;;;1.40;83.00;;;;;;5029350;28;83302;-46
2021/12/21 11:13:44;;;;;;;;;;;1.40;83.20;;;;;;5030184;28;81158;-46
2021/12/21 11:16:09;;;;;;;;;;;1.50;83.50;;;;;;5031817;28;82670;-46
2021/12/21 11:18:37;;;;;;;;;;;1.40;83.40;;;;;;5029533;28;82075;-46
2021/12/21 11:21:05;;;;;;;;;;;1.40;83.20;;;;;;5028983;28;82832;-46
2021/12/21 11:23:30;;;;;;;;;;;1.40;83.20;;;;;;5029125;28;84603;-46
2021/12/21 11:25:58;;;;;;;;;;;1.40;83.40;;;;;;5029455;28;82141;-46
2021/12/21 11:28:27;;;;;;;;;;;1.40;83.20;;;;;;5029223;28;83935;-46
2021/12/21 11:30:57;;;;;;;;;;;1.40;83.20;;;;;;5029047;28;84385;-48
2021/12/21 11:33:25;;;;;;;;;;;1.50;83.30;;;;;;5029232;28;81830;-46
2021/12/21 11:38:35;;;;;;;;;;;1.40;83.10;;;;;;5030102;28;81041;-46
2021/12/21 11:41:00;;;;;;;;;;;1.50;82.90;;;;;;5029273;28;83164;-46
2021/12/21 11:43:39;;;;;;;;;;;1.50;82.80;;;;;;5028152;28;84643;-46
2021/12/21 11:46:11;;;;;;;;;;;1.50;82.90;;;;;;5028630;28;82838;-45
2021/12/21 11:48:52;;;;;;;;;;;1.50;83.00;;;;;;5028934;28;84897;-46
2021/12/21 11:51:22;;;;;;;;;;;1.40;83.10;;;;;;5028708;28;84385;-45
2021/12/21 11:53:48;;;;;;;;;;;1.40;83.30;;;;;;5028913;28;82043;-46
2021/12/21 11:56:18;;;;;;;;;;;1.40;82.80;;;;;;5028958;28;83746;-46
2021/12/21 11:58:43;;;;;;;;;;;1.40;82.80;;;;;;5031350;28;84871;-46
2021/12/21 12:01:12;;;;;;;;;;;1.40;82.80;;;;;;5028938;28;83868;-46
2021/12/21 12:03:39;;;;;;;;;;;1.40;82.90;;;;;;5028919;28;83890;-46
2021/12/21 12:06:06;;;;;;;;;;;1.40;83.00;;;;;;5028557;28;82071;-46
2021/12/21 12:08:43;;;;;;;;;;;1.40;82.90;;;;;;5028540;28;83830;-45
2021/12/21 12:11:09;;;;;;;;;;;1.40;82.80;;;;;;5027982;28;85584;-46
2021/12/21 12:13:39;;;;;;;;;;;1.40;82.80;;;;;;5028711;28;82080;-46
2021/12/21 12:16:09;;;;;;;;;;;1.40;83.00;;;;;;5028599;28;84165;-45
2021/12/21 12:18:37;;;;;;;;;;;1.40;82.90;;;;;;5028294;28;84618;-46
2021/12/21 12:21:12;;;;;;;;;;;1.40;83.00;;;;;;5031206;28;82049;-46
2021/12/21 12:23:44;;;;;;;;;;;1.40;83.10;;;;;;5028610;28;82743;-46
2021/12/21 12:26:19;;;;;;;;;;;1.40;83.00;;;;;;5028730;28;82144;-46
2021/12/21 12:28:44;;;;;;;;;;;1.40;83.10;;;;;;5029042;28;84094;-46
2021/12/21 12:31:10;;;;;;;;;;;1.40;83.00;;;;;;5027996;28;84740;-45
2021/12/21 12:33:39;;;;;;;;;;;1.40;83.00;;;;;;5028126;28;82281;-46
2021/12/21 12:36:04;;;;;;;;;;;1.40;83.10;;;;;;5027506;28;84030;-46
2021/12/21 12:38:30;;;;;;;;;;;1.40;83.30;;;;;;5028074;28;83447;-46
2021/12/21 12:40:58;;;;;;;;;;;1.40;83.80;;;;;;5028285;28;82134;-46
2021/12/21 12:43:23;;;;;;;;;;;1.40;83.30;;;;;;5030899;28;81698;-45
2021/12/21 12:45:51;;;;;;;;;;;1.40;83.10;;;;;;5028083;28;82060;-45
2021/12/21 12:48:24;;;;;;;;;;;1.30;83.20;;;;;;5026511;28;85681;-46
2021/12/21 12:50:51;;;;;;;;;;;1.30;83.00;;;;;;5027951;28;84759;-46
2021/12/21 12:53:17;;;;;;;;;;;1.30;82.90;;;;;;5028638;28;81296;-46
2021/12/21 12:55:45;;;;;;;;;;;1.30;82.70;;;;;;5026848;28;83146;-46
2021/12/21 12:58:22;;;;;;;;;;;1.30;83.00;;;;;;5027763;28;84658;-46
2021/12/21 13:00:53;;;;;;;;;;;1.30;83.10;;;;;;5027218;28;83005;-46
2021/12/21 13:03:21;;;;;;;;;;;1.30;83.30;;;;;;5027697;28;83989;-46
2021/12/21 13:05:54;;;;;;;;;;;1.30;83.00;;;;;;5030129;28;84736;-46
2021/12/21 13:08:23;;;;;;;;;;;1.30;82.90;;;;;;5027854;28;83761;-46
2021/12/21 13:10:50;;;;;;;;;;;1.30;83.00;;;;;;5027596;28;84472;-46
2021/12/21 13:13:16;;;;;;;;;;;1.30;83.00;;;;;;5027504;28;82101;-47
2021/12/21 13:15:43;;;;;;;;;;;1.30;82.90;;;;;;5026907;28;84060;-45
2021/12/21 13:18:12;;;;;;;;;;;1.30;83.20;;;;;;5028125;28;82182;-46
2021/12/21 13:20:39;;;;;;;;;;;1.30;83.00;;;;;;5027612;28;82077;-45
2021/12/21 13:23:12;;;;;;;;;;;1.30;82.90;;;;;;5027592;28;83310;-45
2021/12/21 13:25:37;;;;;;;;;;;1.30;82.80;;;;;;5026550;28;85545;-46
2021/12/21 13:28:10;;;;;;;;;;;1.40;82.90;;;;;;5030263;28;81956;-46
2021/12/21 13:30:36;;;;;;;;;;;1.30;82.60;;;;;;5027146;28;84346;-45
2021/12/21 13:33:01;;;;;;;;;;;1.30;82.50;;;;;;5027320;28;81979;-45
2021/12/21 13:35:29;;;;;;;;;;;1.30;82.80;;;;;;5027162;28;84080;-45
2021/12/21 13:37:54;;;;;;;;;;;1.30;82.60;;;;;;5027060;28;84585;-46
2021/12/21 13:40:20;;;;;;;;;;;1.30;82.70;;;;;;5027459;28;82083;-46
2021/12/21 13:42:45;;;;;;;;;;;1.30;82.70;;;;;;5027428;28;84202;-45
2021/12/21 13:45:11;;;;;;;;;;;1.30;82.70;;;;;;5027093;28;83493;-45
2021/12/21 13:47:42;;;;;;;;;;;1.30;82.70;;;;;;5030132;28;82114;-46
2021/12/21 13:50:12;;;;;;;;;;;1.30;82.70;;;;;;5026332;28;85469;-45
2021/12/21 13:52:52;;;;;;;;;;;1.30;82.90;;;;;;5027261;28;82108;-46
2021/12/21 13:55:20;;;;;;;;;;;1.30;83.00;;;;;;5026996;28;83977;-45
2021/12/21 13:57:50;;;;;;;;;;;1.30;82.90;;;;;;5027024;28;86908;-45
2021/12/21 14:00:16;;;;;;;;;;;1.30;83.10;;;;;;5027163;28;81997;-45
2021/12/21 14:02:51;;;;;;;;;;;1.20;83.00;;;;;;5027192;28;82404;-46
2021/12/21 14:05:18;;;;;;;;;;;1.30;82.90;;;;;;5026735;28;84283;-45
2021/12/21 14:07:46;;;;;;;;;;;1.30;83.10;;;;;;5026874;28;81275;-45
2021/12/21 14:10:20;;;;;;;;;;;1.30;83.20;;;;;;5029384;28;83210;-45
2021/12/21 14:12:58;;;;;;;;;;;1.30;83.10;;;;;;5027088;28;82073;-45
2021/12/21 14:15:40;;;;;;;;;;;1.30;83.80;;;;;;5025609;28;84173;-45
2021/12/21 14:18:18;;;;;;;;;;;1.20;83.30;;;;;;5026375;28;84179;-45
2021/12/21 14:20:45;;;;;;;;;;;1.30;83.30;;;;;;5026690;28;82089;-45
2021/12/21 14:23:18;;;;;;;;;;;1.20;83.00;;;;;;5026857;28;82177;-46
2021/12/21 14:25:44;;;;;;;;;;;1.30;83.10;;;;;;5026314;28;84419;-45
2021/12/21 14:28:10;;;;;;;;;;;1.30;83.00;;;;;;5026562;28;82124;-45
2021/12/21 14:30:36;;;;;;;;;;;1.20;83.00;;;;;;5026672;28;83966;-45
2021/12/21 14:33:20;;;;;;;;;;;1.20;82.90;;;;;;5029783;28;83604;-45
2021/12/21 14:35:46;;;;;;;;;;;1.20;83.00;;;;;;5026479;28;83056;-45
2021/12/21 14:38:15;;;;;;;;;;;1.20;83.00;;;;;;5026422;28;84632;-45
2021/12/21 14:40:43;;;;;;;;;;;1.30;83.00;;;;;;5025927;28;82935;-46
2021/12/21 14:43:38;;;;;;;;;;;1.20;83.00;;;;;;5026306;28;84997;-45
2021/12/21 14:46:03;;;;;;;;;;;1.20;83.00;;;;;;5029493;28;84549;-45
2021/12/21 14:48:29;;;;;;;;;;;1.20;83.30;;;;;;5026548;28;82215;-45
2021/12/21 14:51:06;;;;;;;;;;;1.20;83.40;;;;;;5026289;28;83845;-45
2021/12/21 14:53:43;;;;;;;;;;;1.20;83.30;;;;;;5026077;28;84574;-45
2021/12/21 14:56:11;;;;;;;;;;;1.20;83.30;;;;;;5028950;28;81894;-45
2021/12/21 14:58:37;;;;;;;;;;;1.20;83.40;;;;;;5026410;28;83061;-45
2021/12/21 15:01:04;;;;;;;;;;;1.10;83.50;;;;;;5026390;28;82111;-45
2021/12/21 15:03:38;;;;;;;;;;;1.20;83.60;;;;;;5026189;28;83829;-45
2021/12/21 15:06:04;;;;;;;;;;;1.20;83.70;;;;;;5025359;28;85426;-45
2021/12/21 15:08:32;;;;;;;;;;;1.20;83.60;;;;;;5025901;28;82012;-45
2021/12/21 15:10:57;;;;;;;;;;;1.10;83.70;;;;;;5026139;28;83006;-46
2021/12/21 15:13:23;;;;;;;;;;;1.10;83.70;;;;;;5025942;28;83773;-45
2021/12/21 15:15:50;;;;;;;;;;;1.10;83.80;;;;;;5025446;28;82173;-46
2021/12/21 15:18:16;;;;;;;;;;;1.10;83.70;;;;;;5029340;28;83889;-45
2021/12/21 15:20:41;;;;;;;;;;;1.10;83.90;;;;;;5029338;28;82149;-45
2021/12/21 15:23:07;;;;;;;;;;;1.10;84.00;;;;;;5029781;28;84014;-45
2021/12/21 15:25:33;;;;;;;;;;;1.10;83.70;;;;;;5029140;28;84853;-45
2021/12/21 15:27:58;;;;;;;;;;;1.10;83.80;;;;;;5029366;28;82095;-45
2021/12/21 15:30:26;;;;;;;;;;;1.10;83.90;;;;;;5028735;28;83785;-45
2021/12/21 15:32:52;;;;;;;;;;;1.10;84.00;;;;;;5029183;28;82992;-45
2021/12/21 15:35:19;;;;;;;;;;;1.00;83.70;;;;;;5029223;28;81770;-45